Darstellungsparameter: Aktuell verwendete Einstellungen:
Skalierung der Graphiken ... ?
xyx+y,   Skalierungsfaktor:      Skalierung: Modus: x, Faktor: 1
Darstellungszeitraum ... ?
Vom - - bis: - -   Zeitraum: 15.02.2015 - 15.02.2015
Min/Max/Avg-Anzeige ... ?
Zeige MMA aktuell
Zeige MMA Monat
Zeige MMA alles
Zeige --A aktuell
Zeige --A Monat
Zeige --A alles
Keine MMA-Anzeige
MMA:
Minimum Maximum Average (ber die Originaldaten)
MMA-Basis: 15.02.2015 - 15.02.2015
Quicknavigation für Darstellung... ?
Tage:      1T, 2T, 3T, 5T -1T -2T -3T -5T +1T +2T +3T +5T
Wochen: 1W, 2W, 3W -1W -2W -3W +1W +2W +3W
Monate: 1M, 3M, 6M -1M -3M -6M +1M +3M +6M
Jahre:    1J, 3J, 5J, 10J -1J -3J -5J -10J +1J +3J +5J +10J
Nutze für die Darstellung ... ?
Originaldaten oder Mittelwerte auf ...
Stundenbasis Tagesbasis Wochenbasis
Monatsbasis Jahresbasis      Datenbasis: Original-Daten
Darstellen als:
Statistik (Auto) Statistik J:M      Darstellung:
Zur Graphik,    zurück zur Übersicht aller Sensoren.
 
Tabellarische Datenbersicht: ?
 
Sensor: Nr:Datum:Temp:Abs-Feuchte:Windchill:Wind:
Aussen-T/F 1 15-02-2015 00:00:00 3.2 C 5.48 g/m*3 3.2 C 1.6 km/h
2 15-02-2015 00:05:00 3 C 5.41 g/m*3 3 C 1.6 km/h
3 15-02-2015 00:10:00 2.8 C 5.28 g/m*3 2.8 C 1.6 km/h
4 15-02-2015 00:15:00 2.6 C 5.27 g/m*3 2.6 C 1.6 km/h
5 15-02-2015 00:20:00 2.4 C 5.2 g/m*3 2.4 C 3.2 km/h
6 15-02-2015 00:25:00 2.3 C 5.16 g/m*3 2.3 C 4.8 km/h
7 15-02-2015 00:30:00 2.2 C 5.13 g/m*3 2.2 C 3.2 km/h
8 15-02-2015 00:35:00 2.1 C 5.09 g/m*3 2.1 C 3.2 km/h
9 15-02-2015 00:40:00 1.8 C 4.99 g/m*3 1.8 C 1.6 km/h
10 15-02-2015 00:45:00 1.7 C 4.95 g/m*3 1.7 C 1.6 km/h
11 15-02-2015 00:50:00 1.5 C 4.89 g/m*3 1.5 C 3.2 km/h
12 15-02-2015 00:55:00 1.6 C 4.97 g/m*3 1.6 C 4.8 km/h
13 15-02-2015 01:00:00 1.9 C 5.08 g/m*3 1.9 C 4.8 km/h
14 15-02-2015 01:05:00 2.1 C 5.09 g/m*3 2.1 C 4.8 km/h
15 15-02-2015 01:10:00 2.2 C 5.07 g/m*3 2.2 C 4.8 km/h
16 15-02-2015 01:15:00 2.1 C 5.04 g/m*3 2.1 C 3.2 km/h
17 15-02-2015 01:20:00 2 C 5 g/m*3 2 C 4.8 km/h
18 15-02-2015 01:25:00 2 C 5 g/m*3 2 C 4.8 km/h
19 15-02-2015 01:30:00 1.8 C 4.93 g/m*3 1.8 C 4.8 km/h
20 15-02-2015 01:35:00 1.5 C 4.83 g/m*3 1.5 C 4.8 km/h
21 15-02-2015 01:40:00 1.3 C 4.77 g/m*3 1.3 C 4.8 km/h
22 15-02-2015 01:45:00 1.1 C 4.76 g/m*3 1.1 C 4.8 km/h
23 15-02-2015 01:50:00 0.9 C 4.69 g/m*3 0.9 C 3.2 km/h
24 15-02-2015 01:55:00 0.8 C 4.71 g/m*3 0.8 C 4.8 km/h
25 15-02-2015 02:00:00 0.7 C 4.68 g/m*3 0.7 C 3.2 km/h
Sensor: Nr:Datum:Temp:Abs-Feuchte:Windchill:Wind:
Aussen-T/F 26 15-02-2015 02:05:00 0.7 C 4.68 g/m*3 0.7 C 1.6 km/h
27 15-02-2015 02:10:00 0.6 C 4.65 g/m*3 0.6 C 4.8 km/h
28 15-02-2015 02:15:00 0.5 C 4.66 g/m*3 0.5 C 1.6 km/h
29 15-02-2015 02:20:00 0.4 C 4.63 g/m*3 0.4 C 4.8 km/h
30 15-02-2015 02:25:00 0.3 C 4.6 g/m*3 0.3 C 4.8 km/h
31 15-02-2015 02:30:00 0.3 C 4.6 g/m*3 0.3 C 3.2 km/h
32 15-02-2015 02:35:00 0.3 C 4.6 g/m*3 0.3 C 4.8 km/h
33 15-02-2015 02:40:00 0.2 C 4.57 g/m*3 0.2 C 4.8 km/h
34 15-02-2015 02:45:00 0.2 C 4.62 g/m*3 0.2 C 1.6 km/h
35 15-02-2015 02:50:00 0.1 C 4.59 g/m*3 0.1 C 4.8 km/h
36 15-02-2015 02:55:00 0.1 C 4.59 g/m*3 0.1 C 1.6 km/h
37 15-02-2015 03:00:00 0.1 C 4.59 g/m*3 0.1 C 3.2 km/h
38 15-02-2015 03:05:00 0.1 C 4.59 g/m*3 0.1 C 4.8 km/h
39 15-02-2015 03:10:00 0.1 C 4.59 g/m*3 0.1 C 4.8 km/h
40 15-02-2015 03:15:00 0.1 C 4.59 g/m*3 0.1 C 4.8 km/h
41 15-02-2015 03:20:00 0 C 4.55 g/m*3 0 C 3.2 km/h
42 15-02-2015 03:25:00 -0.1 C 4.52 g/m*3 -0.1 C 1.6 km/h
43 15-02-2015 03:30:00 -0.1 C 4.52 g/m*3 -0.1 C 1.6 km/h
44 15-02-2015 03:35:00 -0.2 C 4.49 g/m*3 -0.2 C 3.2 km/h
45 15-02-2015 03:40:00 -0.2 C 4.49 g/m*3 -0.2 C 1.6 km/h
46 15-02-2015 03:45:00 -0.3 C 4.46 g/m*3 -0.3 C 3.2 km/h
47 15-02-2015 03:50:00 -0.4 C 4.43 g/m*3 -0.4 C 3.2 km/h
48 15-02-2015 03:55:00 -0.4 C 4.43 g/m*3 -0.4 C 3.2 km/h
49 15-02-2015 04:00:00 -0.4 C 4.43 g/m*3 -0.4 C 3.2 km/h
50 15-02-2015 04:05:00 -0.4 C 4.43 g/m*3 -0.4 C 1.6 km/h
Sensor: Nr:Datum:Temp:Abs-Feuchte:Windchill:Wind:
Aussen-T/F 51 15-02-2015 04:10:00 -0.5 C 4.4 g/m*3 -0.5 C 3.2 km/h
52 15-02-2015 04:15:00 -0.5 C 4.4 g/m*3 -0.5 C 3.2 km/h
53 15-02-2015 04:20:00 -0.6 C 4.37 g/m*3 -0.6 C 1.6 km/h
54 15-02-2015 04:25:00 -0.6 C 4.37 g/m*3 -0.6 C 3.2 km/h
55 15-02-2015 04:30:00 -0.5 C 4.45 g/m*3 -0.5 C 3.2 km/h
56 15-02-2015 04:35:00 -0.5 C 4.45 g/m*3 -0.5 C 4.8 km/h
57 15-02-2015 04:40:00 -0.5 C 4.45 g/m*3 -0.5 C 4.8 km/h
58 15-02-2015 04:45:00 -0.6 C 4.42 g/m*3 -0.6 C 4.8 km/h
59 15-02-2015 04:50:00 -0.6 C 4.42 g/m*3 -0.6 C 3.2 km/h
60 15-02-2015 04:55:00 -0.6 C 4.42 g/m*3 -0.6 C 4.8 km/h
61 15-02-2015 05:00:00 -0.6 C 4.42 g/m*3 -0.6 C 4.8 km/h
62 15-02-2015 05:05:00 -0.6 C 4.42 g/m*3 -0.6 C 4.8 km/h
63 15-02-2015 05:10:00 -0.6 C 4.42 g/m*3 -0.6 C 3.2 km/h
64 15-02-2015 05:15:00 -0.7 C 4.34 g/m*3 -0.7 C 3.2 km/h
65 15-02-2015 05:20:00 -0.8 C 4.31 g/m*3 -0.8 C 1.6 km/h
66 15-02-2015 05:25:00 -0.8 C 4.31 g/m*3 -0.8 C 0 km/h
67 15-02-2015 05:30:00 -0.8 C 4.31 g/m*3 -0.8 C 0 km/h
68 15-02-2015 05:35:00 -0.9 C 4.28 g/m*3 -0.9 C 0 km/h
69 15-02-2015 05:40:00 -0.9 C 4.32 g/m*3 -0.9 C 0 km/h
70 15-02-2015 05:45:00 -0.9 C 4.32 g/m*3 -0.9 C 0 km/h
71 15-02-2015 05:50:00 -0.9 C 4.32 g/m*3 -0.9 C 1.6 km/h
72 15-02-2015 05:55:00 -0.9 C 4.32 g/m*3 -0.9 C 1.6 km/h
73 15-02-2015 06:00:00 -1 C 4.29 g/m*3 -1 C 0 km/h
74 15-02-2015 06:05:00 -1 C 4.29 g/m*3 -1 C 0 km/h
75 15-02-2015 06:10:00 -1 C 4.29 g/m*3 -1 C 3.2 km/h
Sensor: Nr:Datum:Temp:Abs-Feuchte:Windchill:Wind:
Aussen-T/F 76 15-02-2015 06:15:00 -1.1 C 4.26 g/m*3 -1.1 C 0 km/h
77 15-02-2015 06:20:00 -1.1 C 4.22 g/m*3 -1.1 C 0 km/h
78 15-02-2015 06:25:00 -1.2 C 4.19 g/m*3 -1.2 C 0 km/h
79 15-02-2015 06:30:00 -1.3 C 4.16 g/m*3 -1.3 C 0 km/h
80 15-02-2015 06:35:00 -1.3 C 4.16 g/m*3 -1.3 C 0 km/h
81 15-02-2015 06:40:00 -1.4 C 4.18 g/m*3 -1.4 C 0 km/h
82 15-02-2015 06:45:00 -1.4 C 4.13 g/m*3 -1.4 C 0 km/h
83 15-02-2015 06:50:00 -1.3 C 4.21 g/m*3 -1.3 C 0 km/h
84 15-02-2015 06:55:00 -1.4 C 4.13 g/m*3 -1.4 C 3.2 km/h
85 15-02-2015 07:00:00 -1.4 C 4.18 g/m*3 -1.4 C 0 km/h
86 15-02-2015 07:05:00 -1.3 C 4.21 g/m*3 -1.3 C 0 km/h
87 15-02-2015 07:10:00 -1.4 C 4.18 g/m*3 -1.4 C 0 km/h
88 15-02-2015 07:15:00 -1.4 C 4.18 g/m*3 -1.4 C 0 km/h
89 15-02-2015 07:20:00 -1.4 C 4.18 g/m*3 -1.4 C 0 km/h
90 15-02-2015 07:25:00 -1.5 C 4.15 g/m*3 -1.5 C 0 km/h
91 15-02-2015 07:30:00 -1.6 C 4.12 g/m*3 -1.6 C 0 km/h
92 15-02-2015 07:35:00 -1.6 C 4.12 g/m*3 -1.6 C 0 km/h
93 15-02-2015 07:40:00 -1.6 C 4.12 g/m*3 -1.6 C 0 km/h
94 15-02-2015 07:45:00 -1.5 C 4.15 g/m*3 -1.5 C 1.6 km/h
95 15-02-2015 07:50:00 -1.5 C 4.15 g/m*3 -1.5 C 0 km/h
96 15-02-2015 07:55:00 -1.5 C 4.15 g/m*3 -1.5 C 0 km/h
97 15-02-2015 08:00:00 -1.6 C 4.12 g/m*3 -1.6 C 0 km/h
98 15-02-2015 08:05:00 -1.6 C 4.12 g/m*3 -1.6 C 0 km/h
99 15-02-2015 08:10:00 -1.5 C 4.15 g/m*3 -1.5 C 0 km/h
100 15-02-2015 08:15:00 -1.5 C 4.15 g/m*3 -1.5 C 0 km/h
Sensor: Nr:Datum:Temp:Abs-Feuchte:Windchill:Wind:
Aussen-T/F 101 15-02-2015 08:20:00 -1.4 C 4.18 g/m*3 -1.4 C 0 km/h
102 15-02-2015 08:25:00 -1.4 C 4.18 g/m*3 -1.4 C 0 km/h
103 15-02-2015 08:30:00 -1.4 C 4.18 g/m*3 -1.4 C 0 km/h
104 15-02-2015 08:35:00 -1.4 C 4.18 g/m*3 -1.4 C 0 km/h
105 15-02-2015 08:40:00 -1.4 C 4.18 g/m*3 -1.4 C 0 km/h
106 15-02-2015 08:45:00 -1.3 C 4.21 g/m*3 -1.3 C 0 km/h
107 15-02-2015 08:50:00 -1.3 C 4.25 g/m*3 -1.3 C 0 km/h
108 15-02-2015 08:55:00 -1.3 C 4.25 g/m*3 -1.3 C 0 km/h
109 15-02-2015 09:00:00 -1.3 C 4.25 g/m*3 -1.3 C 0 km/h
110 15-02-2015 09:05:00 -1.3 C 4.21 g/m*3 -1.3 C 0 km/h
111 15-02-2015 09:10:00 -1.2 C 4.28 g/m*3 -1.2 C 0 km/h
112 15-02-2015 09:15:00 -1.2 C 4.28 g/m*3 -1.2 C 0 km/h
113 15-02-2015 09:20:00 -1.1 C 4.31 g/m*3 -1.1 C 0 km/h
114 15-02-2015 09:25:00 -1.1 C 4.31 g/m*3 -1.1 C 0 km/h
115 15-02-2015 09:30:00 -0.9 C 4.37 g/m*3 -0.9 C 0 km/h
116 15-02-2015 09:35:00 -0.9 C 4.37 g/m*3 -0.9 C 0 km/h
117 15-02-2015 09:40:00 -0.8 C 4.4 g/m*3 -0.8 C 0 km/h
118 15-02-2015 09:45:00 -0.8 C 4.4 g/m*3 -0.8 C 0 km/h
119 15-02-2015 09:50:00 -0.7 C 4.43 g/m*3 -0.7 C 0 km/h
120 15-02-2015 09:55:00 -0.6 C 4.46 g/m*3 -0.6 C 0 km/h
121 15-02-2015 10:00:00 -0.5 C 4.49 g/m*3 -0.5 C 0 km/h
122 15-02-2015 10:05:00 -0.4 C 4.52 g/m*3 -0.4 C 0 km/h
123 15-02-2015 10:10:00 -0.3 C 4.56 g/m*3 -0.3 C 0 km/h
124 15-02-2015 10:15:00 -0.2 C 4.59 g/m*3 -0.2 C 3.2 km/h
125 15-02-2015 10:20:00 -0.1 C 4.57 g/m*3 -0.1 C 3.2 km/h
Sensor: Nr:Datum:Temp:Abs-Feuchte:Windchill:Wind:
Aussen-T/F 126 15-02-2015 10:25:00 0 C 4.6 g/m*3 0 C 3.2 km/h
127 15-02-2015 10:30:00 0.1 C 4.63 g/m*3 0.1 C 3.2 km/h
128 15-02-2015 10:35:00 0.2 C 4.67 g/m*3 0.2 C 0 km/h
129 15-02-2015 10:40:00 0.3 C 4.7 g/m*3 0.3 C 3.2 km/h
130 15-02-2015 10:45:00 0.4 C 4.73 g/m*3 0.4 C 3.2 km/h
131 15-02-2015 10:50:00 0.5 C 4.76 g/m*3 0.5 C 1.6 km/h
132 15-02-2015 10:55:00 0.6 C 4.75 g/m*3 0.6 C 3.2 km/h
133 15-02-2015 11:00:00 0.7 C 4.78 g/m*3 -1.37 C 6.4 km/h
134 15-02-2015 11:05:00 0.8 C 4.81 g/m*3 0.8 C 0 km/h
135 15-02-2015 11:10:00 0.9 C 4.85 g/m*3 0.9 C 1.6 km/h
136 15-02-2015 11:15:00 1.1 C 4.86 g/m*3 1.1 C 3.2 km/h
137 15-02-2015 11:20:00 1.2 C 4.89 g/m*3 1.2 C 3.2 km/h
138 15-02-2015 11:25:00 1.3 C 4.87 g/m*3 1.3 C 3.2 km/h
139 15-02-2015 11:30:00 1.4 C 4.91 g/m*3 1.4 C 3.2 km/h
140 15-02-2015 11:35:00 1.7 C 4.9 g/m*3 1.7 C 1.6 km/h
141 15-02-2015 11:40:00 2 C 4.89 g/m*3 2 C 1.6 km/h
142 15-02-2015 11:45:00 2.2 C 5.01 g/m*3 2.2 C 1.6 km/h
143 15-02-2015 11:50:00 2.1 C 4.98 g/m*3 2.1 C 1.6 km/h
144 15-02-2015 11:55:00 2.1 C 5.04 g/m*3 2.1 C 3.2 km/h
145 15-02-2015 12:00:00 2.1 C 5.04 g/m*3 2.1 C 1.6 km/h
146 15-02-2015 12:05:00 2.1 C 5.04 g/m*3 2.1 C 4.8 km/h
147 15-02-2015 12:10:00 2.3 C 5.1 g/m*3 2.3 C 3.2 km/h
148 15-02-2015 12:15:00 2.3 C 5.05 g/m*3 2.3 C 1.6 km/h
149 15-02-2015 12:20:00 2.4 C 5.08 g/m*3 2.4 C 3.2 km/h
150 15-02-2015 12:25:00 2.6 C 5.15 g/m*3 2.6 C 1.6 km/h
Sensor: Nr:Datum:Temp:Abs-Feuchte:Windchill:Wind:
Aussen-T/F 151 15-02-2015 12:30:00 2.8 C 5.22 g/m*3 2.8 C 3.2 km/h
152 15-02-2015 12:35:00 2.9 C 5.26 g/m*3 2.9 C 1.6 km/h
153 15-02-2015 12:40:00 3.1 C 5.27 g/m*3 3.1 C 4.8 km/h
154 15-02-2015 12:45:00 3.3 C 5.34 g/m*3 3.3 C 0 km/h
155 15-02-2015 12:50:00 3.6 C 5.32 g/m*3 3.6 C 1.6 km/h
156 15-02-2015 12:55:00 3.8 C 5.33 g/m*3 3.8 C 1.6 km/h
157 15-02-2015 13:00:00 4.3 C 5.38 g/m*3 2.29 C 8.1 km/h
158 15-02-2015 13:05:00 4.7 C 5.33 g/m*3 2.76 C 8.1 km/h
159 15-02-2015 13:10:00 5.1 C 5.34 g/m*3 5.1 C 4.8 km/h
160 15-02-2015 13:15:00 5.4 C 5.44 g/m*3 5.4 C 3.2 km/h
161 15-02-2015 13:20:00 5.8 C 5.37 g/m*3 5.8 C 4.8 km/h
162 15-02-2015 13:25:00 6 C 5.59 g/m*3 6 C 3.2 km/h
163 15-02-2015 13:30:00 6 C 5.3 g/m*3 4.75 C 6.4 km/h
164 15-02-2015 13:35:00 6.2 C 5.52 g/m*3 6.2 C 1.6 km/h
165 15-02-2015 13:40:00 6.2 C 5.59 g/m*3 6.2 C 3.2 km/h
166 15-02-2015 13:45:00 6.2 C 5.59 g/m*3 6.2 C 4.8 km/h
167 15-02-2015 13:50:00 6.2 C 5.52 g/m*3 6.2 C 3.2 km/h
168 15-02-2015 13:55:00 6.4 C 5.51 g/m*3 4.75 C 8.1 km/h
169 15-02-2015 14:00:00 6.6 C 5.51 g/m*3 5.44 C 6.4 km/h
170 15-02-2015 14:05:00 6.6 C 5.66 g/m*3 6.6 C 4.8 km/h
171 15-02-2015 14:10:00 6.4 C 5.59 g/m*3 6.4 C 1.6 km/h
172 15-02-2015 14:15:00 6.7 C 5.77 g/m*3 6.7 C 4.8 km/h
173 15-02-2015 14:20:00 6.8 C 5.74 g/m*3 6.8 C 3.2 km/h
174 15-02-2015 14:25:00 6.8 C 5.81 g/m*3 6.8 C 4.8 km/h
175 15-02-2015 14:30:00 6.7 C 5.7 g/m*3 6.7 C 3.2 km/h
Sensor: Nr:Datum:Temp:Abs-Feuchte:Windchill:Wind:
Aussen-T/F 176 15-02-2015 14:35:00 6.7 C 5.77 g/m*3 5.56 C 6.4 km/h
177 15-02-2015 14:40:00 6.8 C 5.74 g/m*3 6.8 C 4.8 km/h
178 15-02-2015 14:45:00 6.9 C 5.62 g/m*3 6.9 C 4.8 km/h
179 15-02-2015 14:50:00 7.1 C 5.85 g/m*3 7.1 C 4.8 km/h
180 15-02-2015 14:55:00 6.9 C 5.77 g/m*3 5.79 C 6.4 km/h
181 15-02-2015 15:00:00 7.2 C 5.73 g/m*3 7.2 C 4.8 km/h
182 15-02-2015 15:05:00 7.4 C 6.04 g/m*3 7.4 C 1.6 km/h
183 15-02-2015 15:10:00 7.2 C 5.97 g/m*3 7.2 C 3.2 km/h
184 15-02-2015 15:15:00 7 C 6.04 g/m*3 7 C 0 km/h
185 15-02-2015 15:20:00 6.9 C 6 g/m*3 6.9 C 0 km/h
186 15-02-2015 15:25:00 6.8 C 5.89 g/m*3 6.8 C 0 km/h
187 15-02-2015 15:30:00 6.7 C 5.93 g/m*3 6.7 C 0 km/h
188 15-02-2015 15:35:00 6.7 C 5.93 g/m*3 6.7 C 0 km/h
189 15-02-2015 15:40:00 6.6 C 5.81 g/m*3 6.6 C 0 km/h
190 15-02-2015 15:45:00 6.5 C 5.92 g/m*3 6.5 C 0 km/h
191 15-02-2015 15:50:00 6.4 C 5.89 g/m*3 6.4 C 0 km/h
192 15-02-2015 15:55:00 6.4 C 5.89 g/m*3 6.4 C 3.2 km/h
193 15-02-2015 16:00:00 6.3 C 5.85 g/m*3 6.3 C 3.2 km/h
194 15-02-2015 16:05:00 6.3 C 5.85 g/m*3 6.3 C 3.2 km/h
195 15-02-2015 16:10:00 6.2 C 5.88 g/m*3 6.2 C 4.8 km/h
196 15-02-2015 16:15:00 6.2 C 5.88 g/m*3 6.2 C 4.8 km/h
197 15-02-2015 16:20:00 6.2 C 5.88 g/m*3 6.2 C 4.8 km/h
198 15-02-2015 16:25:00 6.1 C 5.92 g/m*3 6.1 C 3.2 km/h
199 15-02-2015 16:30:00 5.9 C 5.84 g/m*3 5.9 C 3.2 km/h
200 15-02-2015 16:35:00 5.8 C 5.8 g/m*3 5.8 C 4.8 km/h
Sensor: Nr:Datum:Temp:Abs-Feuchte:Windchill:Wind:
Aussen-T/F 201 15-02-2015 16:40:00 5.8 C 5.8 g/m*3 5.8 C 4.8 km/h
202 15-02-2015 16:45:00 5.8 C 5.8 g/m*3 4.52 C 6.4 km/h
203 15-02-2015 16:50:00 5.7 C 5.76 g/m*3 5.7 C 4.8 km/h
204 15-02-2015 16:55:00 5.5 C 5.76 g/m*3 5.5 C 4.8 km/h
205 15-02-2015 17:00:00 5.3 C 5.68 g/m*3 5.3 C 3.2 km/h
206 15-02-2015 17:05:00 5.2 C 5.65 g/m*3 3.82 C 6.4 km/h
207 15-02-2015 17:10:00 5.2 C 5.65 g/m*3 3.82 C 6.4 km/h
208 15-02-2015 17:15:00 5.2 C 5.65 g/m*3 3.82 C 6.4 km/h
209 15-02-2015 17:20:00 5.2 C 5.58 g/m*3 3.82 C 6.4 km/h
210 15-02-2015 17:25:00 5.1 C 5.54 g/m*3 3.71 C 6.4 km/h
211 15-02-2015 17:30:00 4.9 C 5.4 g/m*3 3.48 C 6.4 km/h
212 15-02-2015 17:35:00 4.8 C 5.43 g/m*3 3.36 C 6.4 km/h
213 15-02-2015 17:40:00 4.7 C 5.4 g/m*3 3.25 C 6.4 km/h
214 15-02-2015 17:45:00 4.5 C 5.32 g/m*3 3.02 C 6.4 km/h
215 15-02-2015 17:50:00 4.3 C 5.32 g/m*3 2.78 C 6.4 km/h
216 15-02-2015 17:55:00 4.2 C 5.28 g/m*3 2.67 C 6.4 km/h
217 15-02-2015 18:00:00 3.9 C 5.24 g/m*3 2.32 C 6.4 km/h
218 15-02-2015 18:05:00 3.8 C 5.21 g/m*3 1.7 C 8.1 km/h
219 15-02-2015 18:10:00 3.6 C 5.14 g/m*3 1.98 C 6.4 km/h
220 15-02-2015 18:15:00 3.6 C 5.2 g/m*3 1.98 C 6.4 km/h
221 15-02-2015 18:20:00 3.4 C 5.13 g/m*3 1.75 C 6.4 km/h
222 15-02-2015 18:25:00 3.3 C 5.1 g/m*3 1.11 C 8.1 km/h
223 15-02-2015 18:30:00 3.2 C 5.12 g/m*3 1.51 C 6.4 km/h
224 15-02-2015 18:35:00 3.1 C 5.15 g/m*3 3.1 C 4.8 km/h
225 15-02-2015 18:40:00 3.1 C 5.15 g/m*3 0.87 C 8.1 km/h
Sensor: Nr:Datum:Temp:Abs-Feuchte:Windchill:Wind:
Aussen-T/F 226 15-02-2015 18:45:00 3 C 5.11 g/m*3 0.76 C 8.1 km/h
227 15-02-2015 18:50:00 3 C 5.11 g/m*3 1.28 C 6.4 km/h
228 15-02-2015 18:55:00 3 C 5.11 g/m*3 1.28 C 6.4 km/h
229 15-02-2015 19:00:00 3 C 5.11 g/m*3 1.28 C 6.4 km/h
230 15-02-2015 19:05:00 3 C 5.11 g/m*3 3 C 4.8 km/h
231 15-02-2015 19:10:00 2.9 C 5.14 g/m*3 1.17 C 6.4 km/h
232 15-02-2015 19:15:00 2.8 C 5.1 g/m*3 1.05 C 6.4 km/h
233 15-02-2015 19:20:00 2.7 C 5.13 g/m*3 2.7 C 4.8 km/h
234 15-02-2015 19:25:00 2.7 C 5.13 g/m*3 2.7 C 4.8 km/h
235 15-02-2015 19:30:00 2.6 C 5.09 g/m*3 0.82 C 6.4 km/h
236 15-02-2015 19:35:00 2.5 C 5.06 g/m*3 0.71 C 6.4 km/h
237 15-02-2015 19:40:00 2.5 C 5.06 g/m*3 2.5 C 4.8 km/h
238 15-02-2015 19:45:00 2.4 C 5.08 g/m*3 2.4 C 4.8 km/h
239 15-02-2015 19:50:00 2.4 C 5.08 g/m*3 0.59 C 6.4 km/h
240 15-02-2015 19:55:00 2.3 C 5.05 g/m*3 2.3 C 4.8 km/h
241 15-02-2015 20:00:00 2.2 C 5.01 g/m*3 2.2 C 4.8 km/h
242 15-02-2015 20:05:00 2.2 C 5.01 g/m*3 2.2 C 4.8 km/h
243 15-02-2015 20:10:00 2.2 C 5.07 g/m*3 0.36 C 6.4 km/h
244 15-02-2015 20:15:00 2.1 C 5.04 g/m*3 2.1 C 4.8 km/h
245 15-02-2015 20:20:00 2 C 5 g/m*3 2 C 1.6 km/h
246 15-02-2015 20:25:00 1.9 C 4.97 g/m*3 1.9 C 3.2 km/h
247 15-02-2015 20:30:00 1.9 C 5.02 g/m*3 1.9 C 4.8 km/h
248 15-02-2015 20:35:00 1.9 C 5.02 g/m*3 1.9 C 3.2 km/h
249 15-02-2015 20:40:00 1.9 C 5.02 g/m*3 1.9 C 3.2 km/h
250 15-02-2015 20:45:00 1.8 C 4.93 g/m*3 1.8 C 3.2 km/h
Sensor: Nr:Datum:Temp:Abs-Feuchte:Windchill:Wind:
Aussen-T/F 251 15-02-2015 20:50:00 1.7 C 4.9 g/m*3 1.7 C 4.8 km/h
252 15-02-2015 20:55:00 1.7 C 4.95 g/m*3 -0.22 C 6.4 km/h
253 15-02-2015 21:00:00 1.6 C 4.92 g/m*3 1.6 C 4.8 km/h
254 15-02-2015 21:05:00 1.5 C 4.89 g/m*3 1.5 C 3.2 km/h
255 15-02-2015 21:10:00 1.4 C 4.85 g/m*3 1.4 C 4.8 km/h
256 15-02-2015 21:15:00 1.4 C 4.85 g/m*3 1.4 C 3.2 km/h
257 15-02-2015 21:20:00 1.3 C 4.82 g/m*3 1.3 C 4.8 km/h
258 15-02-2015 21:25:00 1.2 C 4.79 g/m*3 1.2 C 3.2 km/h
259 15-02-2015 21:30:00 1.1 C 4.76 g/m*3 1.1 C 4.8 km/h
260 15-02-2015 21:35:00 1.1 C 4.76 g/m*3 1.1 C 4.8 km/h
261 15-02-2015 21:40:00 0.9 C 4.69 g/m*3 0.9 C 4.8 km/h
262 15-02-2015 21:45:00 0.9 C 4.69 g/m*3 0.9 C 3.2 km/h
263 15-02-2015 21:50:00 0.8 C 4.66 g/m*3 0.8 C 3.2 km/h
264 15-02-2015 21:55:00 0.7 C 4.68 g/m*3 0.7 C 3.2 km/h
265 15-02-2015 22:00:00 0.6 C 4.65 g/m*3 0.6 C 3.2 km/h
266 15-02-2015 22:05:00 0.6 C 4.65 g/m*3 0.6 C 3.2 km/h
267 15-02-2015 22:10:00 0.5 C 4.61 g/m*3 0.5 C 0 km/h
268 15-02-2015 22:15:00 0.4 C 4.58 g/m*3 0.4 C 1.6 km/h
269 15-02-2015 22:20:00 0.3 C 4.55 g/m*3 0.3 C 3.2 km/h
270 15-02-2015 22:25:00 0.4 C 4.63 g/m*3 0.4 C 3.2 km/h
271 15-02-2015 22:30:00 0.4 C 4.63 g/m*3 0.4 C 0 km/h
272 15-02-2015 22:35:00 0.3 C 4.6 g/m*3 0.3 C 0 km/h
273 15-02-2015 22:40:00 0.2 C 4.57 g/m*3 0.2 C 0 km/h
274 15-02-2015 22:45:00 0.2 C 4.57 g/m*3 0.2 C 0 km/h
275 15-02-2015 22:50:00 0.1 C 4.54 g/m*3 0.1 C 0 km/h
Sensor: Nr:Datum:Temp:Abs-Feuchte:Windchill:Wind:
Aussen-T/F 276 15-02-2015 22:55:00 0 C 4.51 g/m*3 0 C 0 km/h
277 15-02-2015 23:00:00 -0.1 C 4.47 g/m*3 -0.1 C 0 km/h
278 15-02-2015 23:05:00 -0.2 C 4.49 g/m*3 -0.2 C 0 km/h
279 15-02-2015 23:10:00 -0.2 C 4.49 g/m*3 -0.2 C 0 km/h
280 15-02-2015 23:15:00 -0.2 C 4.49 g/m*3 -0.2 C 3.2 km/h
281 15-02-2015 23:20:00 -0.1 C 4.52 g/m*3 -0.1 C 3.2 km/h
282 15-02-2015 23:25:00 -0.1 C 4.52 g/m*3 -0.1 C 3.2 km/h
283 15-02-2015 23:30:00 -0.1 C 4.52 g/m*3 -0.1 C 3.2 km/h
284 15-02-2015 23:35:00 -0.1 C 4.52 g/m*3 -0.1 C 4.8 km/h
285 15-02-2015 23:40:00 -0.1 C 4.52 g/m*3 -0.1 C 4.8 km/h
286 15-02-2015 23:45:00 -0.1 C 4.52 g/m*3 -0.1 C 3.2 km/h
287 15-02-2015 23:50:00 -0.2 C 4.49 g/m*3 -0.2 C 0 km/h
288 15-02-2015 23:55:00 -0.3 C 4.46 g/m*3 -0.3 C 0 km/h

Legende:
   Min
   Max


Maximal/Minimal-Werte vom 15.02.2015 - 15.02.2015

Sensor Min Max Avg
Temp
(Aussen-T/F)
-1.6 °C
15-02-2015  07:30:00
7.4 °C
15-02-2015  15:05:00
1.73 °C
Abs-Feuchte
(Aussen-T/F)
4.12 g/m*3
15-02-2015  07:30:00
6.04 g/m*3
15-02-2015  15:05:00
4.86 g/m*3
Windchill
(Aussen-T/F)
-1.6 C
15-02-2015  07:30:00
7.4 C
15-02-2015  15:05:00
1.5 C

Die Daten stammen von einer Davis Vantage Pro 2 Wetter-Station und werden unter Linux mit der Software wview2wettercgi und aufbereitet. Alle Angaben erfolgen ohne Gewähr für ihre Vollständigkeit oder Richtigkeit.
Kontakt: Rainer Krienke krienke@uni-koblenz.de . Meine Webseiten an der Uni Koblenz oder privat.
Version: $Revision: 0.78 $